Aviation Digital Data Service (ADDS)

Output produced by METARs form (0343 UTC 19 August 2019)
found at http://www.aviationweather.gov/metar/data/
 
METAR text: RKSM 190300Z 02004KT 9999 FEW030 BKN200 30/21 A2983
Conditions at: RKSM (SEOUL EAST(KOR-A, KR) observed 0300 UTC 19 August 2019
Temperature: 30.0°C (86°F)
Dewpoint: 21.0°C (70°F) [RH = 59%]
Pressure (altimeter): 29.83 inches Hg (1010.2 mb)
Winds: from the NNE (20 degrees) at 5 MPH (4 knots; 2.1 m/s)
Visibility: 6 or more miles (10+ km)
Ceiling: 20000 feet AGL
Clouds: few clouds at 3000 feet AGL
broken clouds at 20000 feet AGL
Weather: no significant weather observed at this time

METAR text: RKSM 190200Z 35004KT 9999 FEW030 BKN200 28/21 A2984
Conditions at: RKSM (SEOUL EAST(KOR-A, KR) observed 0200 UTC 19 August 2019
Temperature: 28.0°C (82°F)
Dewpoint: 21.0°C (70°F) [RH = 66%]
Pressure (altimeter): 29.84 inches Hg (1010.6 mb)
Winds: from the N (350 degrees) at 5 MPH (4 knots; 2.1 m/s)
Visibility: 6 or more miles (10+ km)
Ceiling: 20000 feet AGL
Clouds: few clouds at 3000 feet AGL
broken clouds at 20000 feet AGL
Weather: no significant weather observed at this time

METAR text: RKSM 190100Z 32002KT 9999 BKN200 26/20 A2985
Conditions at: RKSM (SEOUL EAST(KOR-A, KR) observed 0100 UTC 19 August 2019
Temperature: 26.0°C (79°F)
Dewpoint: 20.0°C (68°F) [RH = 70%]
Pressure (altimeter): 29.85 inches Hg (1010.9 mb)
Winds: from the NW (320 degrees) at 2 MPH (2 knots; 1.0 m/s)
Visibility: 6 or more miles (10+ km)
Ceiling: 20000 feet AGL
Clouds: broken clouds at 20000 feet AGL
Weather: no significant weather observed at this time

METAR text: RKSM 190000Z 04001KT 9999 BKN200 25/20 A2985
Conditions at: RKSM (SEOUL EAST(KOR-A, KR) observed 0000 UTC 19 August 2019
Temperature: 25.0°C (77°F)
Dewpoint: 20.0°C (68°F) [RH = 74%]
Pressure (altimeter): 29.85 inches Hg (1010.9 mb)
Winds: from the NE (40 degrees) at 1 MPH (1 knots; 0.5 m/s)
Visibility: 6 or more miles (10+ km)
Ceiling: 20000 feet AGL
Clouds: broken clouds at 20000 feet AGL
Weather: no significant weather observed at this time

METAR text: RKSM 182300Z 00000KT 9999 BKN200 23/20 A2984
Conditions at: RKSM (SEOUL EAST(KOR-A, KR) observed 2300 UTC 18 August 2019
Temperature: 23.0°C (73°F)
Dewpoint: 20.0°C (68°F) [RH = 83%]
Pressure (altimeter): 29.84 inches Hg (1010.6 mb)
Winds: calm
Visibility: 6 or more miles (10+ km)
Ceiling: 20000 feet AGL
Clouds: broken clouds at 20000 feet AGL
Weather: no significant weather observed at this time

METAR text: RKSM 182200Z 00000KT 9999 BKN200 21/20 A2984
Conditions at: RKSM (SEOUL EAST(KOR-A, KR) observed 2200 UTC 18 August 2019
Temperature: 21.0°C (70°F)
Dewpoint: 20.0°C (68°F) [RH = 94%]
Pressure (altimeter): 29.84 inches Hg (1010.6 mb)
Winds: calm
Visibility: 6 or more miles (10+ km)
Ceiling: 20000 feet AGL
Clouds: broken clouds at 20000 feet AGL
Weather: no significant weather observed at this time

METAR text: RKSM 182100Z 19002KT 9999 SCT200 21/19 A2984
Conditions at: RKSM (SEOUL EAST(KOR-A, KR) observed 2100 UTC 18 August 2019
Temperature: 21.0°C (70°F)
Dewpoint: 19.0°C (66°F) [RH = 88%]
Pressure (altimeter): 29.84 inches Hg (1010.6 mb)
Winds: from the S (190 degrees) at 2 MPH (2 knots; 1.0 m/s)
Visibility: 6 or more miles (10+ km)
Ceiling: at least 12,000 feet AGL
Clouds: scattered clouds at 20000 feet AGL
Weather: no significant weather observed at this time

METAR text: RKSM 182000Z 17004KT 9999 SCT200 21/19 A2982
Conditions at: RKSM (SEOUL EAST(KOR-A, KR) observed 2000 UTC 18 August 2019
Temperature: 21.0°C (70°F)
Dewpoint: 19.0°C (66°F) [RH = 88%]
Pressure (altimeter): 29.82 inches Hg (1009.9 mb)
Winds: from the S (170 degrees) at 5 MPH (4 knots; 2.1 m/s)
Visibility: 6 or more miles (10+ km)
Ceiling: at least 12,000 feet AGL
Clouds: scattered clouds at 20000 feet AGL
Weather: no significant weather observed at this time

METAR text: RKSM 181900Z 00000KT 9999 FEW200 21/20 A2982
Conditions at: RKSM (SEOUL EAST(KOR-A, KR) observed 1900 UTC 18 August 2019
Temperature: 21.0°C (70°F)
Dewpoint: 20.0°C (68°F) [RH = 94%]
Pressure (altimeter): 29.82 inches Hg (1009.9 mb)
Winds: calm
Visibility: 6 or more miles (10+ km)
Ceiling: at least 12,000 feet AGL
Clouds: few clouds at 20000 feet AGL
Weather: no significant weather observed at this time

METAR text: RKSM 181800Z 20002KT 9999 FEW200 21/20 A2981
Conditions at: RKSM (SEOUL EAST(KOR-A, KR) observed 1800 UTC 18 August 2019
Temperature: 21.0°C (70°F)
Dewpoint: 20.0°C (68°F) [RH = 94%]
Pressure (altimeter): 29.81 inches Hg (1009.6 mb)
Winds: from the SSW (200 degrees) at 2 MPH (2 knots; 1.0 m/s)
Visibility: 6 or more miles (10+ km)
Ceiling: at least 12,000 feet AGL
Clouds: few clouds at 20000 feet AGL
Weather: no significant weather observed at this time

METAR text: RKSM 181700Z 18003KT 9999 SCT200 22/20 A2981
Conditions at: RKSM (SEOUL EAST(KOR-A, KR) observed 1700 UTC 18 August 2019
Temperature: 22.0°C (72°F)
Dewpoint: 20.0°C (68°F) [RH = 88%]
Pressure (altimeter): 29.81 inches Hg (1009.6 mb)
Winds: from the S (180 degrees) at 3 MPH (3 knots; 1.5 m/s)
Visibility: 6 or more miles (10+ km)
Ceiling: at least 12,000 feet AGL
Clouds: scattered clouds at 20000 feet AGL
Weather: no significant weather observed at this time

METAR text: RKSM 181600Z 17002KT 9999 SCT200 22/19 A2980
Conditions at: RKSM (SEOUL EAST(KOR-A, KR) observed 1600 UTC 18 August 2019
Temperature: 22.0°C (72°F)
Dewpoint: 19.0°C (66°F) [RH = 83%]
Pressure (altimeter): 29.80 inches Hg (1009.2 mb)
Winds: from the S (170 degrees) at 2 MPH (2 knots; 1.0 m/s)
Visibility: 6 or more miles (10+ km)
Ceiling: at least 12,000 feet AGL
Clouds: scattered clouds at 20000 feet AGL
Weather: no significant weather observed at this time

METAR text: RKSM 181500Z 17002KT 9999 SCT200 22/19 A2979
Conditions at: RKSM (SEOUL EAST(KOR-A, KR) observed 1500 UTC 18 August 2019
Temperature: 22.0°C (72°F)
Dewpoint: 19.0°C (66°F) [RH = 83%]
Pressure (altimeter): 29.79 inches Hg (1008.9 mb)
Winds: from the S (170 degrees) at 2 MPH (2 knots; 1.0 m/s)
Visibility: 6 or more miles (10+ km)
Ceiling: at least 12,000 feet AGL
Clouds: scattered clouds at 20000 feet AGL
Weather: no significant weather observed at this time

METAR text: RKSM 181400Z 17003KT 9999 FEW200 23/19 A2979
Conditions at: RKSM (SEOUL EAST(KOR-A, KR) observed 1400 UTC 18 August 2019
Temperature: 23.0°C (73°F)
Dewpoint: 19.0°C (66°F) [RH = 78%]
Pressure (altimeter): 29.79 inches Hg (1008.9 mb)
Winds: from the S (170 degrees) at 3 MPH (3 knots; 1.5 m/s)
Visibility: 6 or more miles (10+ km)
Ceiling: at least 12,000 feet AGL
Clouds: few clouds at 20000 feet AGL
Weather: no significant weather observed at this time

METAR text: RKSM 181300Z 00000KT 9999 FEW200 23/19 A2979
Conditions at: RKSM (SEOUL EAST(KOR-A, KR) observed 1300 UTC 18 August 2019
Temperature: 23.0°C (73°F)
Dewpoint: 19.0°C (66°F) [RH = 78%]
Pressure (altimeter): 29.79 inches Hg (1008.9 mb)
Winds: calm
Visibility: 6 or more miles (10+ km)
Ceiling: at least 12,000 feet AGL
Clouds: few clouds at 20000 feet AGL
Weather: no significant weather observed at this time

METAR text: RKSM 181200Z 02001KT 9999 FEW050 24/18 A2978
Conditions at: RKSM (SEOUL EAST(KOR-A, KR) observed 1200 UTC 18 August 2019
Temperature: 24.0°C (75°F)
Dewpoint: 18.0°C (64°F) [RH = 69%]
Pressure (altimeter): 29.78 inches Hg (1008.5 mb)
Winds: from the NNE (20 degrees) at 1 MPH (1 knots; 0.5 m/s)
Visibility: 6 or more miles (10+ km)
Ceiling: at least 12,000 feet AGL
Clouds: few clouds at 5000 feet AGL
Weather: no significant weather observed at this time

METAR text: RKSM 181100Z 31001KT 9999 FEW050 26/16 A2975
Conditions at: RKSM (SEOUL EAST(KOR-A, KR) observed 1100 UTC 18 August 2019
Temperature: 26.0°C (79°F)
Dewpoint: 16.0°C (61°F) [RH = 54%]
Pressure (altimeter): 29.75 inches Hg (1007.5 mb)
Winds: from the NW (310 degrees) at 1 MPH (1 knots; 0.5 m/s)
Visibility: 6 or more miles (10+ km)
Ceiling: at least 12,000 feet AGL
Clouds: few clouds at 5000 feet AGL
Weather: no significant weather observed at this time

METAR text: RKSM 181000Z 27002KT 9999 SCT050 28/17 A2972
Conditions at: RKSM (SEOUL EAST(KOR-A, KR) observed 1000 UTC 18 August 2019
Temperature: 28.0°C (82°F)
Dewpoint: 17.0°C (63°F) [RH = 51%]
Pressure (altimeter): 29.72 inches Hg (1006.5 mb)
Winds: from the W (270 degrees) at 2 MPH (2 knots; 1.0 m/s)
Visibility: 6 or more miles (10+ km)
Ceiling: at least 12,000 feet AGL
Clouds: scattered clouds at 5000 feet AGL
Weather: no significant weather observed at this time

METAR text: RKSM 180900Z 25005KT 9999 FEW040 29/18 A2971
Conditions at: RKSM (SEOUL EAST(KOR-A, KR) observed 0900 UTC 18 August 2019
Temperature: 29.0°C (84°F)
Dewpoint: 18.0°C (64°F) [RH = 52%]
Pressure (altimeter): 29.71 inches Hg (1006.2 mb)
Winds: from the WSW (250 degrees) at 6 MPH (5 knots; 2.6 m/s)
Visibility: 6 or more miles (10+ km)
Ceiling: at least 12,000 feet AGL
Clouds: few clouds at 4000 feet AGL
Weather: no significant weather observed at this time

METAR text: RKSM 180800Z 28005KT 9999 FEW040 30/17 A2971
Conditions at: RKSM (SEOUL EAST(KOR-A, KR) observed 0800 UTC 18 August 2019
Temperature: 30.0°C (86°F)
Dewpoint: 17.0°C (63°F) [RH = 46%]
Pressure (altimeter): 29.71 inches Hg (1006.2 mb)
Winds: from the W (280 degrees) at 6 MPH (5 knots; 2.6 m/s)
Visibility: 6 or more miles (10+ km)
Ceiling: at least 12,000 feet AGL
Clouds: few clouds at 4000 feet AGL
Weather: no significant weather observed at this time

METAR text: RKSM 180700Z 23004KT 9999 FEW040 30/17 A2972
Conditions at: RKSM (SEOUL EAST(KOR-A, KR) observed 0700 UTC 18 August 2019
Temperature: 30.0°C (86°F)
Dewpoint: 17.0°C (63°F) [RH = 46%]
Pressure (altimeter): 29.72 inches Hg (1006.5 mb)
Winds: from the SW (230 degrees) at 5 MPH (4 knots; 2.1 m/s)
Visibility: 6 or more miles (10+ km)
Ceiling: at least 12,000 feet AGL
Clouds: few clouds at 4000 feet AGL
Weather: no significant weather observed at this time

METAR text: RKSM 180600Z 21005KT 9999 SCT040 SCT200 30/18 A2973
Conditions at: RKSM (SEOUL EAST(KOR-A, KR) observed 0600 UTC 18 August 2019
Temperature: 30.0°C (86°F)
Dewpoint: 18.0°C (64°F) [RH = 49%]
Pressure (altimeter): 29.73 inches Hg (1006.9 mb)
Winds: from the SSW (210 degrees) at 6 MPH (5 knots; 2.6 m/s)
Visibility: 6 or more miles (10+ km)
Ceiling: at least 12,000 feet AGL
Clouds: scattered clouds at 4000 feet AGL
scattered clouds at 20000 feet AGL
Weather: no significant weather observed at this time

METAR text: RKSM 180500Z 20005KT 9999 SCT040 SCT200 29/18 A2974
Conditions at: RKSM (SEOUL EAST(KOR-A, KR) observed 0500 UTC 18 August 2019
Temperature: 29.0°C (84°F)
Dewpoint: 18.0°C (64°F) [RH = 52%]
Pressure (altimeter): 29.74 inches Hg (1007.2 mb)
Winds: from the SSW (200 degrees) at 6 MPH (5 knots; 2.6 m/s)
Visibility: 6 or more miles (10+ km)
Ceiling: at least 12,000 feet AGL
Clouds: scattered clouds at 4000 feet AGL
scattered clouds at 20000 feet AGL
Weather: no significant weather observed at this time

METAR text: RKSM 180400Z 24004KT 9999 BKN030 BKN200 28/18 A2975
Conditions at: RKSM (SEOUL EAST(KOR-A, KR) observed 0400 UTC 18 August 2019
Temperature: 28.0°C (82°F)
Dewpoint: 18.0°C (64°F) [RH = 55%]
Pressure (altimeter): 29.75 inches Hg (1007.5 mb)
Winds: from the WSW (240 degrees) at 5 MPH (4 knots; 2.1 m/s)
Visibility: 6 or more miles (10+ km)
Ceiling: 3000 feet AGL
Clouds: broken clouds at 3000 feet AGL
broken clouds at 20000 feet AGL
Weather: no significant weather observed at this time

METAR text: RKSM 180300Z 26005KT 9999 BKN030 28/19 A2976
Conditions at: RKSM (SEOUL EAST(KOR-A, KR) observed 0300 UTC 18 August 2019
Temperature: 28.0°C (82°F)
Dewpoint: 19.0°C (66°F) [RH = 58%]
Pressure (altimeter): 29.76 inches Hg (1007.9 mb)
Winds: from the W (260 degrees) at 6 MPH (5 knots; 2.6 m/s)
Visibility: 6 or more miles (10+ km)
Ceiling: 3000 feet AGL
Clouds: broken clouds at 3000 feet AGL
Weather: no significant weather observed at this time

METAR text: RKSM 180200Z 23005KT 9999 SCT030 27/18 A2976
Conditions at: RKSM (SEOUL EAST(KOR-A, KR) observed 0200 UTC 18 August 2019
Temperature: 27.0°C (81°F)
Dewpoint: 18.0°C (64°F) [RH = 58%]
Pressure (altimeter): 29.76 inches Hg (1007.9 mb)
Winds: from the SW (230 degrees) at 6 MPH (5 knots; 2.6 m/s)
Visibility: 6 or more miles (10+ km)
Ceiling: at least 12,000 feet AGL
Clouds: scattered clouds at 3000 feet AGL
Weather: no significant weather observed at this time

METAR text: RKSM 180100Z 21005KT 9999 SCT030 SCT200 27/21 A2975
Conditions at: RKSM (SEOUL EAST(KOR-A, KR) observed 0100 UTC 18 August 2019
Temperature: 27.0°C (81°F)
Dewpoint: 21.0°C (70°F) [RH = 70%]
Pressure (altimeter): 29.75 inches Hg (1007.5 mb)
Winds: from the SSW (210 degrees) at 6 MPH (5 knots; 2.6 m/s)
Visibility: 6 or more miles (10+ km)
Ceiling: at least 12,000 feet AGL
Clouds: scattered clouds at 3000 feet AGL
scattered clouds at 20000 feet AGL
Weather: no significant weather observed at this time

METAR text: RKSM 180000Z 20005KT 9999 FEW015 SCT030 25/21 A2975
Conditions at: RKSM (SEOUL EAST(KOR-A, KR) observed 0000 UTC 18 August 2019
Temperature: 25.0°C (77°F)
Dewpoint: 21.0°C (70°F) [RH = 79%]
Pressure (altimeter): 29.75 inches Hg (1007.5 mb)
Winds: from the SSW (200 degrees) at 6 MPH (5 knots; 2.6 m/s)
Visibility: 6 or more miles (10+ km)
Ceiling: at least 12,000 feet AGL
Clouds: few clouds at 1500 feet AGL
scattered clouds at 3000 feet AGL
Weather: no significant weather observed at this time

METAR text: RKSM 172300Z 20004KT 6000 BR FEW010 SCT025 23/22 A2975
Conditions at: RKSM (SEOUL EAST(KOR-A, KR) observed 2300 UTC 17 August 2019
Temperature: 23.0°C (73°F)
Dewpoint: 22.0°C (72°F) [RH = 94%]
Pressure (altimeter): 29.75 inches Hg (1007.5 mb)
Winds: from the SSW (200 degrees) at 5 MPH (4 knots; 2.1 m/s)
Visibility: 4 miles ( 6 km)
Ceiling: at least 12,000 feet AGL
Clouds: few clouds at 1000 feet AGL
scattered clouds at 2500 feet AGL
Weather: BR  (mist)

METAR text: RKSM 172200Z 22003KT 6000 BR FEW010 SCT025 22/21 A2973
Conditions at: RKSM (SEOUL EAST(KOR-A, KR) observed 2200 UTC 17 August 2019
Temperature: 22.0°C (72°F)
Dewpoint: 21.0°C (70°F) [RH = 94%]
Pressure (altimeter): 29.73 inches Hg (1006.9 mb)
Winds: from the SW (220 degrees) at 3 MPH (3 knots; 1.5 m/s)
Visibility: 4 miles ( 6 km)
Ceiling: at least 12,000 feet AGL
Clouds: few clouds at 1000 feet AGL
scattered clouds at 2500 feet AGL
Weather: BR  (mist)

METAR text: RKSM 172100Z 22005KT 8000 BR FEW010 SCT040 BKN070 22/21 A2971
Conditions at: RKSM (SEOUL EAST(KOR-A, KR) observed 2100 UTC 17 August 2019
Temperature: 22.0°C (72°F)
Dewpoint: 21.0°C (70°F) [RH = 94%]
Pressure (altimeter): 29.71 inches Hg (1006.2 mb)
Winds: from the SW (220 degrees) at 6 MPH (5 knots; 2.6 m/s)
Visibility: 5 miles ( 8 km)
Ceiling: 7000 feet AGL
Clouds: few clouds at 1000 feet AGL
scattered clouds at 4000 feet AGL
broken clouds at 7000 feet AGL
Weather: BR  (mist)

METAR text: RKSM 172000Z 21004KT 9999 FEW030 BKN050 21/20 A2970
Conditions at: RKSM (SEOUL EAST(KOR-A, KR) observed 2000 UTC 17 August 2019
Temperature: 21.0°C (70°F)
Dewpoint: 20.0°C (68°F) [RH = 94%]
Pressure (altimeter): 29.70 inches Hg (1005.8 mb)
Winds: from the SSW (210 degrees) at 5 MPH (4 knots; 2.1 m/s)
Visibility: 6 or more miles (10+ km)
Ceiling: 5000 feet AGL
Clouds: few clouds at 3000 feet AGL
broken clouds at 5000 feet AGL
Weather: no significant weather observed at this time

METAR text: RKSM 171900Z 18002KT 9999 FEW030 21/20 A2969
Conditions at: RKSM (SEOUL EAST(KOR-A, KR) observed 1900 UTC 17 August 2019
Temperature: 21.0°C (70°F)
Dewpoint: 20.0°C (68°F) [RH = 94%]
Pressure (altimeter): 29.69 inches Hg (1005.5 mb)
Winds: from the S (180 degrees) at 2 MPH (2 knots; 1.0 m/s)
Visibility: 6 or more miles (10+ km)
Ceiling: at least 12,000 feet AGL
Clouds: few clouds at 3000 feet AGL
Weather: no significant weather observed at this time

METAR text: RKSM 171800Z 16002KT 9999 FEW030 21/20 A2969
Conditions at: RKSM (SEOUL EAST(KOR-A, KR) observed 1800 UTC 17 August 2019
Temperature: 21.0°C (70°F)
Dewpoint: 20.0°C (68°F) [RH = 94%]
Pressure (altimeter): 29.69 inches Hg (1005.5 mb)
Winds: from the SSE (160 degrees) at 2 MPH (2 knots; 1.0 m/s)
Visibility: 6 or more miles (10+ km)
Ceiling: at least 12,000 feet AGL
Clouds: few clouds at 3000 feet AGL
Weather: no significant weather observed at this time

METAR text: RKSM 171700Z 00000KT 9999 FEW015 21/20 A2969
Conditions at: RKSM (SEOUL EAST(KOR-A, KR) observed 1700 UTC 17 August 2019
Temperature: 21.0°C (70°F)
Dewpoint: 20.0°C (68°F) [RH = 94%]
Pressure (altimeter): 29.69 inches Hg (1005.5 mb)
Winds: calm
Visibility: 6 or more miles (10+ km)
Ceiling: at least 12,000 feet AGL
Clouds: few clouds at 1500 feet AGL
Weather: no significant weather observed at this time

METAR text: RKSM 171600Z 16003KT 9999 FEW015 22/20 A2968
Conditions at: RKSM (SEOUL EAST(KOR-A, KR) observed 1600 UTC 17 August 2019
Temperature: 22.0°C (72°F)
Dewpoint: 20.0°C (68°F) [RH = 88%]
Pressure (altimeter): 29.68 inches Hg (1005.2 mb)
Winds: from the SSE (160 degrees) at 3 MPH (3 knots; 1.5 m/s)
Visibility: 6 or more miles (10+ km)
Ceiling: at least 12,000 feet AGL
Clouds: few clouds at 1500 feet AGL
Weather: no significant weather observed at this time

Forecast for: RKSM (SEOUL EAST(KOR-A, KR)
Text: TAF RKSM 182300Z 1900/2006 33006KT 9999 BKN200 TN21/1921Z TX32/2006Z
Forecast period: 0000 UTC 19 August 2019 to 0600 UTC 20 August 2019
Forecast type: FROM: standard forecast or significant change
Winds: from the NNW (330 degrees) at 7 MPH (6 knots; 3.1 m/s)
Visibility: 6 or more miles 10+ km)
Ceiling: 20000 feet AGL
Clouds: broken clouds at 20000 feet AGL
Weather: no significant weather forecast for this period